createdAt,value
2017-05-25T00:00:54.845Z,0
2017-05-25T00:01:56.296Z,0
2017-05-25T00:02:57.751Z,0
2017-05-25T00:03:59.205Z,0
2017-05-25T00:05:00.675Z,0
2017-05-25T00:06:02.146Z,0
2017-05-25T00:07:03.601Z,0
2017-05-25T00:08:05.051Z,0
2017-05-25T00:09:06.509Z,0
2017-05-25T00:10:07.952Z,0
2017-05-25T00:11:09.405Z,0
2017-05-25T00:12:10.868Z,0
2017-05-25T00:13:12.336Z,0
2017-05-25T00:14:13.785Z,0
2017-05-25T00:15:15.236Z,0
2017-05-25T00:16:16.686Z,0
2017-05-25T00:17:18.143Z,0
2017-05-25T00:18:19.603Z,0
2017-05-25T00:19:21.053Z,0
2017-05-25T00:20:22.505Z,0
2017-05-25T00:21:23.967Z,0
2017-05-25T00:22:25.424Z,0
2017-05-25T00:23:26.879Z,0
2017-05-25T00:24:28.332Z,0
2017-05-25T00:25:29.793Z,0
2017-05-25T00:26:31.254Z,0
2017-05-25T00:27:32.708Z,0
2017-05-25T00:28:34.163Z,0
2017-05-25T00:29:35.617Z,0
2017-05-25T00:30:37.080Z,0
2017-05-25T00:31:38.535Z,0
2017-05-25T00:32:39.989Z,0
2017-05-25T00:33:41.443Z,0
2017-05-25T00:34:42.891Z,0
2017-05-25T00:35:44.344Z,0
2017-05-25T00:36:45.800Z,0
2017-05-25T00:37:47.267Z,0
2017-05-25T00:38:48.723Z,0
2017-05-25T00:39:50.177Z,0
2017-05-25T00:40:51.636Z,0
2017-05-25T00:41:53.136Z,0
2017-05-25T00:42:54.587Z,0
2017-05-25T00:43:56.040Z,0
2017-05-25T00:44:57.495Z,0
2017-05-25T00:45:58.976Z,0
2017-05-25T00:47:00.436Z,0
2017-05-25T00:48:01.894Z,0
2017-05-25T00:49:03.344Z,0
2017-05-25T00:50:04.791Z,0
2017-05-25T00:51:06.255Z,0
2017-05-25T00:52:07.713Z,0
2017-05-25T00:53:09.164Z,0
2017-05-25T00:54:10.616Z,0
2017-05-25T00:55:12.072Z,0
2017-05-25T00:56:13.620Z,0
2017-05-25T00:57:14.989Z,0
2017-05-25T00:58:16.438Z,0
2017-05-25T00:59:17.897Z,0
2017-05-25T01:00:19.352Z,0
2017-05-25T01:01:20.821Z,0
2017-05-25T01:02:22.278Z,0
2017-05-25T01:03:23.730Z,0
2017-05-25T01:04:25.185Z,0
2017-05-25T01:05:26.643Z,0
2017-05-25T01:06:28.099Z,0
2017-05-25T01:07:29.554Z,0
2017-05-25T01:08:31.022Z,0
2017-05-25T01:09:32.489Z,0
2017-05-25T01:10:33.942Z,0
2017-05-25T01:11:35.395Z,0
2017-05-25T01:12:36.854Z,0
2017-05-25T01:13:38.303Z,0
2017-05-25T01:14:39.757Z,0
2017-05-25T01:15:41.208Z,0
2017-05-25T01:16:42.663Z,0
2017-05-25T01:17:44.118Z,0
2017-05-25T01:18:45.569Z,0
2017-05-25T01:19:47.025Z,0
2017-05-25T01:20:48.481Z,0
2017-05-25T01:21:49.944Z,0
2017-05-25T01:22:51.399Z,0
2017-05-25T01:23:52.889Z,0
2017-05-25T01:24:54.328Z,0
2017-05-25T01:25:55.778Z,0
2017-05-25T01:26:57.236Z,0
2017-05-25T01:27:58.686Z,0
2017-05-25T01:29:00.137Z,0
2017-05-25T01:30:01.603Z,0
2017-05-25T01:31:03.049Z,0
2017-05-25T01:32:04.515Z,0
2017-05-25T01:33:05.961Z,0
2017-05-25T01:34:07.405Z,0
2017-05-25T01:35:08.858Z,0
2017-05-25T01:36:10.335Z,0
2017-05-25T01:37:11.790Z,0
2017-05-25T01:38:13.244Z,0
2017-05-25T01:39:14.694Z,0
2017-05-25T01:40:16.141Z,0
2017-05-25T01:41:17.590Z,0
2017-05-25T01:42:19.045Z,0
2017-05-25T01:43:20.512Z,0
2017-05-25T01:44:21.962Z,0
2017-05-25T01:45:23.416Z,0
2017-05-25T01:46:24.873Z,0
2017-05-25T01:47:26.314Z,0
2017-05-25T01:48:27.765Z,0
2017-05-25T01:49:29.218Z,0
2017-05-25T01:50:30.672Z,0
2017-05-25T01:51:32.129Z,0
2017-05-25T01:52:33.586Z,0
2017-05-25T01:53:35.045Z,0
2017-05-25T01:54:36.495Z,0
2017-05-25T01:55:37.944Z,0
2017-05-25T01:56:39.412Z,0
2017-05-25T01:57:40.871Z,0
2017-05-25T01:58:42.326Z,0
2017-05-25T01:59:43.778Z,0
2017-05-25T02:00:45.228Z,0
2017-05-25T02:01:46.683Z,0
2017-05-25T02:02:48.139Z,0
2017-05-25T02:03:49.588Z,0
2017-05-25T02:04:51.039Z,0
2017-05-25T02:05:52.494Z,0
2017-05-25T02:06:53.951Z,0
2017-05-25T02:07:55.413Z,0
2017-05-25T02:08:56.866Z,0
2017-05-25T02:09:58.331Z,0
2017-05-25T02:10:59.790Z,0
2017-05-25T02:12:01.260Z,0
2017-05-25T02:13:02.716Z,0
2017-05-25T02:14:04.172Z,0
2017-05-25T02:15:05.635Z,0
2017-05-25T02:16:07.087Z,0
2017-05-25T02:17:08.532Z,0
2017-05-25T02:18:09.987Z,0
2017-05-25T02:19:11.441Z,0
2017-05-25T02:20:12.892Z,0
2017-05-25T02:21:14.343Z,0
2017-05-25T02:22:15.799Z,0
2017-05-25T02:23:17.254Z,0
2017-05-25T02:24:18.701Z,0
2017-05-25T02:25:20.146Z,0
2017-05-25T02:26:21.601Z,0
2017-05-25T02:27:23.053Z,0
2017-05-25T02:28:24.510Z,0
2017-05-25T02:29:25.960Z,0
2017-05-25T02:30:27.411Z,0
2017-05-25T02:31:28.862Z,0
2017-05-25T02:32:30.323Z,0
2017-05-25T02:33:31.805Z,0
2017-05-25T02:34:33.260Z,0
2017-05-25T02:35:34.710Z,0
2017-05-25T02:36:36.168Z,0
2017-05-25T02:37:37.622Z,0
2017-05-25T02:38:39.072Z,0
2017-05-25T02:39:40.525Z,0
2017-05-25T02:40:41.979Z,0
2017-05-25T02:41:43.435Z,0
2017-05-25T02:42:44.894Z,0
2017-05-25T02:43:46.354Z,0
2017-05-25T02:44:47.804Z,0
2017-05-25T02:45:49.257Z,0
2017-05-25T02:46:50.719Z,0
2017-05-25T02:47:52.172Z,0
2017-05-25T02:48:53.625Z,0
2017-05-25T02:49:55.076Z,0
2017-05-25T02:50:56.519Z,0
2017-05-25T02:51:57.976Z,0
2017-05-25T02:52:59.424Z,0
2017-05-25T02:54:00.886Z,0
2017-05-25T02:55:02.353Z,0
2017-05-25T02:56:03.800Z,0
2017-05-25T02:57:05.253Z,0
2017-05-25T02:58:06.716Z,0
2017-05-25T02:59:08.168Z,0
2017-05-25T03:00:09.617Z,0
2017-05-25T03:01:11.082Z,0
2017-05-25T03:02:12.539Z,0
2017-05-25T03:03:13.992Z,0
2017-05-25T03:04:15.447Z,0
2017-05-25T03:05:16.906Z,0
2017-05-25T03:06:18.378Z,0
2017-05-25T03:07:19.834Z,0
2017-05-25T03:08:21.283Z,0
2017-05-25T03:09:22.749Z,0
2017-05-25T03:10:24.201Z,0
2017-05-25T03:11:25.659Z,0
2017-05-25T03:12:27.128Z,0
2017-05-25T03:13:28.594Z,0
2017-05-25T03:14:30.043Z,0
2017-05-25T03:15:31.502Z,0
2017-05-25T03:16:32.954Z,5
2017-05-25T03:17:34.410Z,5
2017-05-25T03:18:35.877Z,5
2017-05-25T03:19:37.323Z,5
2017-05-25T03:20:38.780Z,5
2017-05-25T03:21:40.234Z,5
2017-05-25T03:22:41.692Z,5
2017-05-25T03:23:43.145Z,5
2017-05-25T03:24:44.601Z,5
2017-05-25T03:25:46.064Z,5
2017-05-25T03:26:47.531Z,5
2017-05-25T03:27:49.011Z,10
2017-05-25T03:28:50.469Z,10
2017-05-25T03:29:51.927Z,10
2017-05-25T03:30:53.389Z,10
2017-05-25T03:31:54.883Z,10
2017-05-25T03:32:56.348Z,15
2017-05-25T03:33:57.797Z,15
2017-05-25T03:34:59.267Z,15
2017-05-25T03:36:01.436Z,15
2017-05-25T03:37:02.897Z,15
2017-05-25T03:38:04.354Z,20
2017-05-25T03:39:05.848Z,20
2017-05-25T03:40:07.301Z,20
2017-05-25T03:41:08.755Z,20
2017-05-25T03:42:10.217Z,20
2017-05-25T03:43:11.673Z,20
2017-05-25T03:44:13.131Z,25
2017-05-25T03:45:14.588Z,25
2017-05-25T03:46:16.048Z,25
2017-05-25T03:47:17.522Z,30
2017-05-25T03:48:18.985Z,30
2017-05-25T03:49:20.436Z,35
2017-05-25T03:50:21.902Z,35
2017-05-25T03:51:23.362Z,35
2017-05-25T03:52:24.836Z,35
2017-05-25T03:53:26.302Z,35
2017-05-25T03:54:27.772Z,35
2017-05-25T03:55:29.235Z,40
2017-05-25T03:56:30.711Z,40
2017-05-25T03:57:32.172Z,40
2017-05-25T03:58:33.632Z,40
2017-05-25T03:59:35.100Z,40
2017-05-25T04:00:36.557Z,45
2017-05-25T04:01:38.019Z,45
2017-05-25T04:02:39.484Z,45
2017-05-25T04:03:40.958Z,45
2017-05-25T04:04:42.430Z,50
2017-05-25T04:05:43.905Z,50
2017-05-25T04:06:45.369Z,55
2017-05-25T04:07:46.826Z,55
2017-05-25T04:08:48.291Z,60
2017-05-25T04:09:49.747Z,60
2017-05-25T04:10:51.213Z,65
2017-05-25T04:11:52.669Z,65
2017-05-25T04:12:54.125Z,65
2017-05-25T04:13:55.587Z,60
2017-05-25T04:14:57.044Z,65
2017-05-25T04:15:58.507Z,65
2017-05-25T04:16:59.969Z,65
2017-05-25T04:18:01.415Z,65
2017-05-25T04:19:02.874Z,70
2017-05-25T04:20:04.327Z,75
2017-05-25T04:21:05.779Z,75
2017-05-25T04:22:07.241Z,75
2017-05-25T04:23:08.697Z,75
2017-05-25T04:24:10.159Z,75
2017-05-25T04:25:11.613Z,80
2017-05-25T04:26:13.072Z,80
2017-05-25T04:27:14.530Z,85
2017-05-25T04:28:15.986Z,85
2017-05-25T04:29:17.445Z,85
2017-05-25T04:30:18.909Z,85
2017-05-25T04:31:20.362Z,90
2017-05-25T04:32:21.819Z,90
2017-05-25T04:33:23.275Z,95
2017-05-25T04:34:24.731Z,95
2017-05-25T04:35:26.191Z,95
2017-05-25T04:36:27.653Z,95
2017-05-25T04:37:29.116Z,90
2017-05-25T04:38:30.574Z,95
2017-05-25T04:39:32.036Z,100
2017-05-25T04:40:33.499Z,100
2017-05-25T04:41:34.957Z,105
2017-05-25T04:42:36.420Z,105
2017-05-25T04:43:37.874Z,115
2017-05-25T04:44:39.335Z,115
2017-05-25T04:45:40.788Z,115
2017-05-25T04:46:42.246Z,115
2017-05-25T04:47:43.702Z,115
2017-05-25T04:48:45.164Z,120
2017-05-25T04:49:46.619Z,130
2017-05-25T04:50:48.085Z,130
2017-05-25T04:51:49.536Z,130
2017-05-25T04:52:50.999Z,135
2017-05-25T04:53:52.454Z,145
2017-05-25T04:54:53.909Z,150
2017-05-25T04:55:55.375Z,155
2017-05-25T04:56:56.838Z,155
2017-05-25T04:57:58.298Z,155
2017-05-25T04:58:59.760Z,155
2017-05-25T05:00:01.218Z,160
2017-05-25T05:01:02.677Z,160
2017-05-25T05:02:04.132Z,160
2017-05-25T05:03:05.593Z,165
2017-05-25T05:04:07.082Z,165
2017-05-25T05:05:08.540Z,165
2017-05-25T05:06:10.030Z,160
2017-05-25T05:07:11.499Z,165
2017-05-25T05:08:12.973Z,170
2017-05-25T05:09:14.430Z,180
2017-05-25T05:10:15.888Z,185
2017-05-25T05:11:17.403Z,190
2017-05-25T05:12:18.769Z,190
2017-05-25T05:13:20.232Z,190
2017-05-25T05:14:21.692Z,185
2017-05-25T05:15:23.150Z,175
2017-05-25T05:16:24.605Z,175
2017-05-25T05:17:26.062Z,180
2017-05-25T05:18:27.518Z,180
2017-05-25T05:19:28.989Z,180
2017-05-25T05:20:30.483Z,180
2017-05-25T05:21:31.939Z,180
2017-05-25T05:22:33.398Z,190
2017-05-25T05:23:34.856Z,195
2017-05-25T05:24:36.322Z,195
2017-05-25T05:25:37.802Z,200
2017-05-25T05:26:39.273Z,205
2017-05-25T05:27:40.736Z,220
2017-05-25T05:28:42.202Z,225
2017-05-25T05:29:43.661Z,230
2017-05-25T05:30:45.122Z,240
2017-05-25T05:31:46.574Z,250
2017-05-25T05:32:48.033Z,245
2017-05-25T05:33:49.495Z,245
2017-05-25T05:34:50.964Z,250
2017-05-25T05:35:52.419Z,265
2017-05-25T05:36:53.879Z,275
2017-05-25T05:37:55.341Z,280
2017-05-25T05:38:56.797Z,280
2017-05-25T05:39:58.258Z,280
2017-05-25T05:40:59.716Z,275
2017-05-25T05:42:01.182Z,275
2017-05-25T05:43:02.638Z,275
2017-05-25T05:44:04.099Z,270
2017-05-25T05:45:05.555Z,265
2017-05-25T05:46:07.019Z,270
2017-05-25T05:47:08.476Z,290
2017-05-25T05:48:09.937Z,295
2017-05-25T05:49:11.398Z,300
2017-05-25T05:50:12.853Z,305
2017-05-25T05:51:14.317Z,335
2017-05-25T05:52:15.783Z,360
2017-05-25T05:53:17.248Z,375
2017-05-25T05:54:18.707Z,390
2017-05-25T05:55:20.176Z,415
2017-05-25T05:56:21.647Z,430
2017-05-25T05:57:23.116Z,440
2017-05-25T05:58:24.580Z,445
2017-05-25T05:59:26.041Z,440
2017-05-25T06:00:27.512Z,420
2017-05-25T06:01:28.985Z,405
2017-05-25T06:02:30.456Z,390
2017-05-25T06:03:31.924Z,390
2017-05-25T06:04:33.382Z,390
2017-05-25T06:05:34.849Z,390
2017-05-25T06:06:36.327Z,395
2017-05-25T06:07:37.795Z,405
2017-05-25T06:08:39.263Z,415
2017-05-25T06:09:40.720Z,435
2017-05-25T06:10:42.187Z,455
2017-05-25T06:11:43.661Z,450
2017-05-25T06:12:45.125Z,435
2017-05-25T06:13:46.588Z,440
2017-05-25T06:14:48.051Z,475
2017-05-25T06:15:49.515Z,545
2017-05-25T06:16:50.981Z,610
2017-05-25T06:17:52.443Z,690
2017-05-25T06:18:53.950Z,1270
2017-05-25T06:19:55.407Z,710
2017-05-25T06:20:56.864Z,630
2017-05-25T06:21:58.358Z,690
2017-05-25T06:22:59.816Z,760
2017-05-25T06:24:01.277Z,830
2017-05-25T06:25:02.745Z,935
2017-05-25T06:26:04.207Z,885
2017-05-25T06:27:05.673Z,1540
2017-05-25T06:28:07.145Z,1335
2017-05-25T06:29:08.622Z,1455
2017-05-25T06:30:10.104Z,875
2017-05-25T06:31:11.576Z,1620
2017-05-25T06:32:13.045Z,1440
2017-05-25T06:33:14.520Z,1540
2017-05-25T06:34:15.995Z,775
2017-05-25T06:35:17.458Z,880
2017-05-25T06:36:18.933Z,700
2017-05-25T06:37:20.397Z,960
2017-05-25T06:38:22.079Z,745
2017-05-25T06:39:23.547Z,630
2017-05-25T06:40:25.019Z,605
2017-05-25T06:41:26.482Z,600
2017-05-25T06:42:27.970Z,1270
2017-05-25T06:43:29.444Z,1520
2017-05-25T06:44:30.922Z,1500
2017-05-25T06:45:32.405Z,1410
2017-05-25T06:46:33.874Z,1285
2017-05-25T06:47:35.342Z,1170
2017-05-25T06:48:36.813Z,1115
2017-05-25T06:49:38.302Z,1140
2017-05-25T06:50:39.775Z,1300
2017-05-25T06:51:41.248Z,1445
2017-05-25T06:52:42.727Z,1515
2017-05-25T06:53:44.205Z,1605
2017-05-25T06:54:45.670Z,1560
2017-05-25T06:55:47.145Z,1590
2017-05-25T06:56:48.638Z,1590
2017-05-25T06:57:50.105Z,1610
2017-05-25T06:58:51.570Z,1735
2017-05-25T06:59:53.048Z,1945
2017-05-25T07:00:54.524Z,1970
2017-05-25T07:01:55.998Z,2025
2017-05-25T07:02:57.476Z,1860
2017-05-25T07:03:58.957Z,1540
2017-05-25T07:05:00.432Z,2115
2017-05-25T07:06:01.909Z,1120
2017-05-25T07:07:03.378Z,1415
2017-05-25T07:08:04.851Z,1055
2017-05-25T07:09:06.331Z,915
2017-05-25T07:10:07.803Z,720
2017-05-25T07:11:09.274Z,715
2017-05-25T07:12:10.760Z,1155
2017-05-25T07:13:12.231Z,2050
2017-05-25T07:14:13.705Z,1940
2017-05-25T07:15:15.179Z,2010
2017-05-25T07:16:16.670Z,1975
2017-05-25T07:17:18.155Z,2050
2017-05-25T07:18:19.630Z,2080
2017-05-25T07:19:21.113Z,1990
2017-05-25T07:20:22.591Z,2100
2017-05-25T07:21:24.064Z,2105
2017-05-25T07:22:25.555Z,2070
2017-05-25T07:23:27.027Z,1925
2017-05-25T07:24:28.503Z,2270
2017-05-25T07:25:29.976Z,1135
2017-05-25T07:26:31.452Z,2570
2017-05-25T07:27:32.926Z,2055
2017-05-25T07:28:34.400Z,1260
2017-05-25T07:29:35.877Z,1120
2017-05-25T07:30:37.359Z,1055
2017-05-25T07:31:38.824Z,1365
2017-05-25T07:32:40.314Z,765
2017-05-25T07:33:41.796Z,820
2017-05-25T07:34:43.270Z,1095
2017-05-25T07:35:44.758Z,1275
2017-05-25T07:36:46.227Z,1040
2017-05-25T07:37:47.702Z,850
2017-05-25T07:38:49.190Z,780
2017-05-25T07:39:50.686Z,740
2017-05-25T07:40:52.172Z,1245
2017-05-25T07:41:53.652Z,2240
2017-05-25T07:42:55.130Z,2275
2017-05-25T07:43:56.605Z,2240
2017-05-25T07:44:58.087Z,2255
2017-05-25T07:45:59.573Z,2425
2017-05-25T07:47:01.047Z,2410
2017-05-25T07:48:02.524Z,2395
2017-05-25T07:49:04.014Z,2550
2017-05-25T07:50:05.481Z,2675
2017-05-25T07:51:06.957Z,1310
2017-05-25T07:52:08.432Z,1785
2017-05-25T07:53:09.905Z,2670
2017-05-25T07:54:11.381Z,1660
2017-05-25T07:55:12.859Z,1340
2017-05-25T07:56:14.350Z,1245
2017-05-25T07:57:15.843Z,1190
2017-05-25T07:58:17.322Z,1200
2017-05-25T07:59:18.815Z,1430
2017-05-25T08:00:20.286Z,1115
2017-05-25T08:01:21.791Z,1080
2017-05-25T08:02:23.271Z,1345
2017-05-25T08:03:24.743Z,1210
2017-05-25T08:04:26.221Z,935
2017-05-25T08:05:27.696Z,895
2017-05-25T08:06:29.173Z,885
2017-05-25T08:07:30.659Z,1005
2017-05-25T08:08:32.141Z,890
2017-05-25T08:09:33.627Z,1210
2017-05-25T08:10:35.104Z,2390
2017-05-25T08:11:36.583Z,1920
2017-05-25T08:12:38.065Z,1370
2017-05-25T08:13:39.540Z,1150
2017-05-25T08:14:41.011Z,1115
2017-05-25T08:15:42.485Z,1260
2017-05-25T08:16:43.970Z,1495
2017-05-25T08:17:45.443Z,1195
2017-05-25T08:18:46.919Z,2780
2017-05-25T08:19:48.393Z,2865
2017-05-25T08:20:49.866Z,2870
2017-05-25T08:21:51.341Z,2720
2017-05-25T08:22:52.811Z,2745
2017-05-25T08:23:54.296Z,1690
2017-05-25T08:24:55.772Z,2075
2017-05-25T08:25:57.254Z,2530
2017-05-25T08:26:58.733Z,2555
2017-05-25T08:28:00.237Z,2425
2017-05-25T08:29:01.720Z,2420
2017-05-25T08:30:03.212Z,2590
2017-05-25T08:31:04.685Z,1985
2017-05-25T08:32:06.172Z,2895
2017-05-25T08:33:07.650Z,2945
2017-05-25T08:34:09.139Z,2915
2017-05-25T08:35:10.617Z,2820
2017-05-25T08:36:12.107Z,2955
2017-05-25T08:37:13.587Z,1355
2017-05-25T08:38:15.079Z,1225
2017-05-25T08:39:16.557Z,1150
2017-05-25T08:40:18.032Z,1410
2017-05-25T08:41:19.516Z,1120
2017-05-25T08:42:20.992Z,1260
2017-05-25T08:43:22.470Z,1190
2017-05-25T08:44:23.954Z,2805
2017-05-25T08:45:25.423Z,1780
2017-05-25T08:46:26.903Z,1645
2017-05-25T08:47:28.383Z,2745
2017-05-25T08:48:29.873Z,2695
2017-05-25T08:49:31.353Z,2675
2017-05-25T08:50:32.828Z,2615
2017-05-25T08:51:34.306Z,2820
2017-05-25T08:52:35.790Z,2865
2017-05-25T08:53:37.268Z,2665
2017-05-25T08:54:38.764Z,2675
2017-05-25T08:55:40.243Z,2880
2017-05-25T08:56:41.726Z,1850
2017-05-25T08:57:43.219Z,2835
2017-05-25T08:58:44.697Z,2715
2017-05-25T08:59:46.183Z,2920
2017-05-25T09:00:47.664Z,2840
2017-05-25T09:01:49.140Z,3020
2017-05-25T09:02:50.620Z,2945
2017-05-25T09:03:52.102Z,2800
2017-05-25T09:04:53.583Z,2940
2017-05-25T09:05:55.069Z,2990
2017-05-25T09:06:56.548Z,3005
2017-05-25T09:07:58.030Z,2955
2017-05-25T09:08:59.514Z,2955
2017-05-25T09:10:01.001Z,3020
2017-05-25T09:11:02.488Z,2930
2017-05-25T09:12:03.988Z,2870
2017-05-25T09:13:05.466Z,3035
2017-05-25T09:14:06.950Z,3120
2017-05-25T09:15:08.430Z,2880
2017-05-25T09:16:09.911Z,3005
2017-05-25T09:17:11.421Z,3205
2017-05-25T09:18:12.907Z,3235
2017-05-25T09:19:14.385Z,3165
2017-05-25T09:20:15.875Z,3095
2017-05-25T09:21:17.359Z,3125
2017-05-25T09:22:18.847Z,3045
2017-05-25T09:23:20.335Z,2790
2017-05-25T09:24:21.814Z,3140
2017-05-25T09:25:23.297Z,3115
2017-05-25T09:26:24.788Z,3030
2017-05-25T09:27:26.267Z,2915
2017-05-25T09:28:27.756Z,3005
2017-05-25T09:29:29.251Z,2935
2017-05-25T09:30:30.730Z,2920
2017-05-25T09:31:32.221Z,3125
2017-05-25T09:32:33.709Z,3130
2017-05-25T09:33:35.190Z,3055
2017-05-25T09:34:37.485Z,3105
2017-05-25T09:35:38.923Z,3240
2017-05-25T09:36:40.404Z,2990
2017-05-25T09:37:41.895Z,2985
2017-05-25T09:38:43.375Z,3205
2017-05-25T09:39:44.850Z,3120
2017-05-25T09:40:46.333Z,3075
2017-05-25T09:41:47.823Z,3140
2017-05-25T09:42:49.309Z,3125
2017-05-25T09:43:50.807Z,3000
2017-05-25T09:44:52.291Z,3070
2017-05-25T09:45:54.365Z,3260
2017-05-25T09:46:55.851Z,2960
2017-05-25T09:47:57.350Z,2730
2017-05-25T09:48:58.841Z,3140
2017-05-25T09:50:00.313Z,3260
2017-05-25T09:51:01.797Z,3400
2017-05-25T09:52:03.278Z,3420
2017-05-25T09:53:04.770Z,3085
2017-05-25T09:54:06.253Z,3285
2017-05-25T09:55:07.731Z,3365
2017-05-25T09:56:09.281Z,3315
2017-05-25T09:57:10.767Z,3300
2017-05-25T09:58:12.254Z,3295
2017-05-25T09:59:13.748Z,3255
2017-05-25T10:00:15.232Z,3420
2017-05-25T10:01:16.714Z,1485
2017-05-25T10:02:18.193Z,1840
2017-05-25T10:03:19.673Z,3255
2017-05-25T10:04:21.248Z,2870
2017-05-25T10:05:22.737Z,3390
2017-05-25T10:06:24.229Z,3320
2017-05-25T10:07:25.723Z,3400
2017-05-25T10:08:27.206Z,3355
2017-05-25T10:09:28.685Z,3345
2017-05-25T10:10:30.165Z,3410
2017-05-25T10:11:31.656Z,3310
2017-05-25T10:12:33.139Z,3295
2017-05-25T10:13:34.618Z,3380
2017-05-25T10:14:36.125Z,3355
2017-05-25T10:15:37.609Z,3295
2017-05-25T10:16:39.097Z,3435
2017-05-25T10:17:40.576Z,3370
2017-05-25T10:18:42.077Z,3475
2017-05-25T10:19:43.564Z,3495
2017-05-25T10:20:45.048Z,3415
2017-05-25T10:21:46.539Z,3400
2017-05-25T10:22:48.024Z,3450
2017-05-25T10:23:49.506Z,3560
2017-05-25T10:24:50.987Z,3525
2017-05-25T10:25:52.487Z,3370
2017-05-25T10:26:53.981Z,3570
2017-05-25T10:27:55.467Z,3520
2017-05-25T10:28:56.965Z,3665
2017-05-25T10:29:58.451Z,3640
2017-05-25T10:30:59.933Z,3680
2017-05-25T10:32:01.417Z,3445
2017-05-25T10:33:02.896Z,3320
2017-05-25T10:34:04.386Z,3605
2017-05-25T10:35:05.871Z,3400
2017-05-25T10:36:07.359Z,3325
2017-05-25T10:37:08.844Z,3355
2017-05-25T10:38:10.325Z,3265
2017-05-25T10:39:11.805Z,3595
2017-05-25T10:40:13.287Z,3565
2017-05-25T10:41:14.772Z,3320
2017-05-25T10:42:16.264Z,3625
2017-05-25T10:43:17.751Z,1370
2017-05-25T10:44:19.231Z,1465
2017-05-25T10:45:20.715Z,3605
2017-05-25T10:46:22.205Z,3605
2017-05-25T10:47:23.692Z,3705
2017-05-25T10:48:25.177Z,3470
2017-05-25T10:49:26.670Z,3115
2017-05-25T10:50:28.184Z,3265
2017-05-25T10:51:29.670Z,3560
2017-05-25T10:52:31.173Z,3515
2017-05-25T10:53:32.664Z,3505
2017-05-25T10:54:34.158Z,3645
2017-05-25T10:55:35.659Z,3725
2017-05-25T10:56:37.152Z,3835
2017-05-25T10:57:38.647Z,3650
2017-05-25T10:58:40.140Z,3350
2017-05-25T10:59:41.633Z,3400
2017-05-25T11:00:43.121Z,3620
2017-05-25T11:01:44.599Z,3370
2017-05-25T11:02:46.087Z,3560
2017-05-25T11:03:47.572Z,3450
2017-05-25T11:04:49.089Z,3545
2017-05-25T11:05:50.573Z,3525
2017-05-25T11:06:52.062Z,3665
2017-05-25T11:07:53.551Z,3580
2017-05-25T11:08:55.046Z,3425
2017-05-25T11:09:56.541Z,3575
2017-05-25T11:10:58.086Z,3635
2017-05-25T11:11:59.574Z,3715
2017-05-25T11:13:01.068Z,3490
2017-05-25T11:14:02.555Z,3515
2017-05-25T11:15:04.035Z,3785
2017-05-25T11:16:05.531Z,3585
2017-05-25T11:17:07.036Z,3650
2017-05-25T11:18:08.523Z,3620
2017-05-25T11:19:10.021Z,3655
2017-05-25T11:20:11.517Z,3710
2017-05-25T11:21:13.000Z,3565
2017-05-25T11:22:14.484Z,3740
2017-05-25T11:23:15.968Z,3535
2017-05-25T11:24:17.452Z,3475
2017-05-25T11:25:19.004Z,3830
2017-05-25T11:26:20.522Z,3580
2017-05-25T11:27:22.006Z,3775
2017-05-25T11:28:23.490Z,3760
2017-05-25T11:29:24.987Z,3600
2017-05-25T11:30:26.473Z,3855
2017-05-25T11:31:27.965Z,3590
2017-05-25T11:32:29.458Z,3660
2017-05-25T11:33:30.949Z,3780
2017-05-25T11:34:32.476Z,3705
2017-05-25T11:35:33.960Z,3770
2017-05-25T11:36:35.438Z,3725
2017-05-25T11:37:36.932Z,3490
2017-05-25T11:38:38.419Z,1560
2017-05-25T11:39:39.903Z,3355
2017-05-25T11:40:41.390Z,3700
2017-05-25T11:41:42.882Z,2070
2017-05-25T11:42:44.359Z,4080
2017-05-25T11:43:45.844Z,3690
2017-05-25T11:44:47.327Z,3715
2017-05-25T11:45:48.831Z,3845
2017-05-25T11:46:50.321Z,3755
2017-05-25T11:47:51.804Z,3910
2017-05-25T11:48:53.291Z,3720
2017-05-25T11:49:54.789Z,3840
2017-05-25T11:50:56.270Z,3760
2017-05-25T11:51:57.762Z,3605
2017-05-25T11:52:59.259Z,3525
2017-05-25T11:54:00.785Z,3770
2017-05-25T11:55:02.272Z,3735
2017-05-25T11:56:04.345Z,3780
2017-05-25T11:57:05.839Z,3735
2017-05-25T11:58:07.336Z,3675
2017-05-25T11:59:08.825Z,3345
2017-05-25T12:00:10.310Z,3485
2017-05-25T12:01:11.797Z,3795
2017-05-25T12:02:13.286Z,3745
2017-05-25T12:03:14.793Z,3630
2017-05-25T12:04:16.309Z,3515
2017-05-25T12:05:17.796Z,3345
2017-05-25T12:06:19.295Z,3310
2017-05-25T12:07:20.779Z,3425
2017-05-25T12:08:22.269Z,3685
2017-05-25T12:09:23.772Z,3730
2017-05-25T12:10:25.260Z,3600
2017-05-25T12:11:26.743Z,3640
2017-05-25T12:12:28.233Z,3510
2017-05-25T12:13:29.717Z,3450
2017-05-25T12:14:31.207Z,3525
2017-05-25T12:15:32.692Z,3320
2017-05-25T12:16:34.181Z,3520
2017-05-25T12:17:35.669Z,3595
2017-05-25T12:18:37.164Z,3490
2017-05-25T12:19:38.647Z,3550
2017-05-25T12:20:40.133Z,3440
2017-05-25T12:21:41.619Z,3420
2017-05-25T12:22:43.106Z,3690
2017-05-25T12:23:44.592Z,3500
2017-05-25T12:24:46.083Z,3340
2017-05-25T12:25:47.562Z,3480
2017-05-25T12:26:49.065Z,3670
2017-05-25T12:27:50.549Z,3675
2017-05-25T12:28:52.039Z,3610
2017-05-25T12:29:53.537Z,3405
2017-05-25T12:30:55.026Z,3380
2017-05-25T12:31:56.508Z,3435
2017-05-25T12:32:58.003Z,3530
2017-05-25T12:33:59.500Z,3525
2017-05-25T12:35:00.994Z,3575
2017-05-25T12:36:02.490Z,3680
2017-05-25T12:37:03.994Z,3625
2017-05-25T12:38:05.479Z,3700
2017-05-25T12:39:06.971Z,3515
2017-05-25T12:40:08.453Z,3360
2017-05-25T12:41:09.940Z,3440
2017-05-25T12:42:11.430Z,3630
2017-05-25T12:43:12.922Z,3595
2017-05-25T12:44:14.419Z,3510
2017-05-25T12:45:15.914Z,3445
2017-05-25T12:46:17.408Z,3345
2017-05-25T12:47:18.902Z,3545
2017-05-25T12:48:20.387Z,3515
2017-05-25T12:49:21.880Z,3500
2017-05-25T12:50:23.364Z,3365
2017-05-25T12:51:24.846Z,3300
2017-05-25T12:52:26.336Z,3550
2017-05-25T12:53:27.821Z,3410
2017-05-25T12:54:29.308Z,3460
2017-05-25T12:55:30.803Z,3450
2017-05-25T12:56:32.287Z,1095
2017-05-25T12:57:33.783Z,3310
2017-05-25T12:58:35.309Z,3210
2017-05-25T12:59:36.795Z,3380
2017-05-25T13:00:38.287Z,3350
2017-05-25T13:01:39.774Z,3265
2017-05-25T13:02:41.259Z,3365
2017-05-25T13:03:42.749Z,1295
2017-05-25T13:04:44.228Z,2955
2017-05-25T13:05:45.716Z,3305
2017-05-25T13:06:47.208Z,3360
2017-05-25T13:07:48.698Z,3240
2017-05-25T13:08:50.187Z,3215
2017-05-25T13:09:51.669Z,3270
2017-05-25T13:10:53.153Z,3260
2017-05-25T13:11:54.636Z,3470
2017-05-25T13:12:56.129Z,3405
2017-05-25T13:13:57.611Z,3290
2017-05-25T13:14:59.116Z,3400
2017-05-25T13:16:00.644Z,3230
2017-05-25T13:17:02.124Z,1020
2017-05-25T13:18:03.613Z,3120
2017-05-25T13:19:05.097Z,3170
2017-05-25T13:20:06.582Z,3120
2017-05-25T13:21:08.071Z,3155
2017-05-25T13:22:09.565Z,3040
2017-05-25T13:23:11.047Z,3150
2017-05-25T13:24:12.540Z,3215
2017-05-25T13:25:14.025Z,3335
2017-05-25T13:26:15.507Z,1900
2017-05-25T13:27:16.992Z,930
2017-05-25T13:28:18.476Z,1045
2017-05-25T13:29:19.960Z,3125
2017-05-25T13:30:21.442Z,3025
2017-05-25T13:31:22.937Z,3170
2017-05-25T13:32:24.416Z,2500
2017-05-25T13:33:25.905Z,1270
2017-05-25T13:34:27.391Z,1130
2017-05-25T13:35:28.885Z,3360
2017-05-25T13:36:30.365Z,3350
2017-05-25T13:37:31.847Z,3370
2017-05-25T13:38:33.339Z,1045
2017-05-25T13:39:34.844Z,920
2017-05-25T13:40:36.349Z,910
2017-05-25T13:41:37.851Z,3260
2017-05-25T13:42:39.344Z,3210
2017-05-25T13:43:40.843Z,3170
2017-05-25T13:44:42.327Z,3005
2017-05-25T13:45:43.824Z,3055
2017-05-25T13:46:45.328Z,2855
2017-05-25T13:47:46.865Z,1070
2017-05-25T13:48:48.356Z,2875
2017-05-25T13:49:49.857Z,3145
2017-05-25T13:50:51.344Z,3005
2017-05-25T13:51:52.861Z,2830
2017-05-25T13:52:54.369Z,1080
2017-05-25T13:53:55.872Z,1045
2017-05-25T13:54:57.387Z,1005
2017-05-25T13:55:59.467Z,1010
2017-05-25T13:57:00.959Z,1040
2017-05-25T13:58:02.459Z,1365
2017-05-25T13:59:03.943Z,2585
2017-05-25T14:00:05.424Z,2845
2017-05-25T14:01:06.904Z,1135
2017-05-25T14:02:08.393Z,1040
2017-05-25T14:03:09.869Z,995
2017-05-25T14:04:11.347Z,1240
2017-05-25T14:05:12.840Z,1020
2017-05-25T14:06:14.360Z,965
2017-05-25T14:07:15.840Z,965
2017-05-25T14:08:17.322Z,985